sensor_id;sensor_type;location;lat;lon;timestamp;P1;durP1;ratioP1;P2;durP2;ratioP2
83495;SDS011;73431;40.794;43.836;2023-12-22T00:01:27;81.40;;;35.13;;
83495;SDS011;73431;40.794;43.836;2023-12-22T00:03:54;72.13;;;33.17;;
83495;SDS011;73431;40.794;43.836;2023-12-22T00:06:22;69.25;;;32.20;;
83495;SDS011;73431;40.794;43.836;2023-12-22T00:08:50;69.68;;;33.97;;
83495;SDS011;73431;40.794;43.836;2023-12-22T00:11:17;73.10;;;33.83;;
83495;SDS011;73431;40.794;43.836;2023-12-22T00:13:48;71.22;;;33.42;;
83495;SDS011;73431;40.794;43.836;2023-12-22T00:16:16;58.95;;;31.85;;
83495;SDS011;73431;40.794;43.836;2023-12-22T00:18:43;69.47;;;32.00;;
83495;SDS011;73431;40.794;43.836;2023-12-22T00:21:11;63.65;;;31.27;;
83495;SDS011;73431;40.794;43.836;2023-12-22T00:23:39;67.28;;;35.35;;
83495;SDS011;73431;40.794;43.836;2023-12-22T00:26:06;67.45;;;32.35;;
83495;SDS011;73431;40.794;43.836;2023-12-22T00:28:34;76.30;;;34.67;;
83495;SDS011;73431;40.794;43.836;2023-12-22T00:31:02;57.53;;;30.98;;
83495;SDS011;73431;40.794;43.836;2023-12-22T00:33:30;65.65;;;33.40;;
83495;SDS011;73431;40.794;43.836;2023-12-22T00:35:58;63.85;;;32.83;;
83495;SDS011;73431;40.794;43.836;2023-12-22T00:40:54;63.58;;;30.52;;
83495;SDS011;73431;40.794;43.836;2023-12-22T00:43:22;67.55;;;31.80;;
83495;SDS011;73431;40.794;43.836;2023-12-22T00:45:49;66.63;;;32.35;;
83495;SDS011;73431;40.794;43.836;2023-12-22T00:48:17;65.93;;;31.65;;
83495;SDS011;73431;40.794;43.836;2023-12-22T00:50:45;77.53;;;32.55;;
83495;SDS011;73431;40.794;43.836;2023-12-22T00:53:13;71.95;;;34.55;;
83495;SDS011;73431;40.794;43.836;2023-12-22T00:58:09;70.38;;;32.70;;
83495;SDS011;73431;40.794;43.836;2023-12-22T01:00:37;69.15;;;32.03;;
83495;SDS011;73431;40.794;43.836;2023-12-22T01:03:05;72.57;;;34.28;;
83495;SDS011;73431;40.794;43.836;2023-12-22T01:05:32;66.13;;;32.65;;
83495;SDS011;73431;40.794;43.836;2023-12-22T01:08:00;71.35;;;33.47;;
83495;SDS011;73431;40.794;43.836;2023-12-22T01:10:28;73.63;;;35.10;;
83495;SDS011;73431;40.794;43.836;2023-12-22T01:12:56;74.32;;;33.90;;
83495;SDS011;73431;40.794;43.836;2023-12-22T01:15:24;71.03;;;33.78;;
83495;SDS011;73431;40.794;43.836;2023-12-22T01:17:51;69.88;;;34.05;;
83495;SDS011;73431;40.794;43.836;2023-12-22T01:20:20;73.35;;;35.40;;
83495;SDS011;73431;40.794;43.836;2023-12-22T01:22:48;69.22;;;35.13;;
83495;SDS011;73431;40.794;43.836;2023-12-22T01:25:16;71.90;;;35.90;;
83495;SDS011;73431;40.794;43.836;2023-12-22T01:27:43;72.30;;;35.97;;
83495;SDS011;73431;40.794;43.836;2023-12-22T01:30:11;71.30;;;36.90;;
83495;SDS011;73431;40.794;43.836;2023-12-22T01:32:40;77.50;;;36.13;;
83495;SDS011;73431;40.794;43.836;2023-12-22T01:35:08;73.55;;;36.05;;
83495;SDS011;73431;40.794;43.836;2023-12-22T01:37:37;73.60;;;34.17;;
83495;SDS011;73431;40.794;43.836;2023-12-22T01:40:05;75.93;;;34.97;;
83495;SDS011;73431;40.794;43.836;2023-12-22T01:42:34;69.75;;;35.28;;
83495;SDS011;73431;40.794;43.836;2023-12-22T01:45:01;71.80;;;36.15;;
83495;SDS011;73431;40.794;43.836;2023-12-22T01:47:29;73.25;;;36.00;;
83495;SDS011;73431;40.794;43.836;2023-12-22T01:49:57;70.95;;;35.67;;
83495;SDS011;73431;40.794;43.836;2023-12-22T01:52:26;73.85;;;35.78;;
83495;SDS011;73431;40.794;43.836;2023-12-22T01:54:54;71.53;;;35.65;;
83495;SDS011;73431;40.794;43.836;2023-12-22T01:57:22;76.55;;;37.50;;
83495;SDS011;73431;40.794;43.836;2023-12-22T01:59:50;77.70;;;37.85;;
83495;SDS011;73431;40.794;43.836;2023-12-22T02:02:18;82.43;;;37.88;;
83495;SDS011;73431;40.794;43.836;2023-12-22T02:04:46;84.70;;;38.13;;
83495;SDS011;73431;40.794;43.836;2023-12-22T02:07:15;86.43;;;39.13;;
83495;SDS011;73431;40.794;43.836;2023-12-22T02:09:42;74.60;;;37.63;;
83495;SDS011;73431;40.794;43.836;2023-12-22T02:14:38;79.60;;;37.78;;
83495;SDS011;73431;40.794;43.836;2023-12-22T02:20:52;75.82;;;39.40;;
83495;SDS011;73431;40.794;43.836;2023-12-22T02:23:20;81.30;;;38.58;;
83495;SDS011;73431;40.794;43.836;2023-12-22T02:25:49;87.75;;;41.40;;
83495;SDS011;73431;40.794;43.836;2023-12-22T02:28:25;75.97;;;39.22;;
83495;SDS011;73431;40.794;43.836;2023-12-22T02:30:57;85.68;;;39.80;;
83495;SDS011;73431;40.794;43.836;2023-12-22T02:33:50;79.68;;;38.50;;
83495;SDS011;73431;40.794;43.836;2023-12-22T02:36:22;88.75;;;40.15;;
83495;SDS011;73431;40.794;43.836;2023-12-22T02:38:53;78.72;;;38.95;;
83495;SDS011;73431;40.794;43.836;2023-12-22T02:41:22;81.05;;;40.33;;
83495;SDS011;73431;40.794;43.836;2023-12-22T02:43:51;82.72;;;41.00;;
83495;SDS011;73431;40.794;43.836;2023-12-22T02:46:19;79.13;;;38.80;;
83495;SDS011;73431;40.794;43.836;2023-12-22T02:48:47;82.70;;;40.78;;
83495;SDS011;73431;40.794;43.836;2023-12-22T02:51:14;86.72;;;39.83;;
83495;SDS011;73431;40.794;43.836;2023-12-22T02:53:42;85.25;;;40.20;;
83495;SDS011;73431;40.794;43.836;2023-12-22T02:56:10;78.28;;;39.20;;
83495;SDS011;73431;40.794;43.836;2023-12-22T02:58:38;80.40;;;38.70;;
83495;SDS011;73431;40.794;43.836;2023-12-22T03:01:06;83.88;;;37.97;;
83495;SDS011;73431;40.794;43.836;2023-12-22T03:03:34;78.90;;;38.90;;
83495;SDS011;73431;40.794;43.836;2023-12-22T03:08:30;85.50;;;41.15;;
83495;SDS011;73431;40.794;43.836;2023-12-22T03:10:58;76.03;;;39.38;;
83495;SDS011;73431;40.794;43.836;2023-12-22T03:13:26;75.68;;;38.92;;
83495;SDS011;73431;40.794;43.836;2023-12-22T03:15:54;93.82;;;42.70;;
83495;SDS011;73431;40.794;43.836;2023-12-22T03:18:22;83.45;;;39.47;;
83495;SDS011;73431;40.794;43.836;2023-12-22T03:20:50;78.00;;;39.70;;
83495;SDS011;73431;40.794;43.836;2023-12-22T03:23:17;87.20;;;43.30;;
83495;SDS011;73431;40.794;43.836;2023-12-22T03:25:45;80.88;;;40.47;;
83495;SDS011;73431;40.794;43.836;2023-12-22T03:28:13;80.00;;;38.67;;
83495;SDS011;73431;40.794;43.836;2023-12-22T03:30:41;98.13;;;39.80;;
83495;SDS011;73431;40.794;43.836;2023-12-22T03:35:36;87.60;;;37.72;;
83495;SDS011;73431;40.794;43.836;2023-12-22T03:38:05;79.13;;;36.28;;
83495;SDS011;73431;40.794;43.836;2023-12-22T03:40:33;86.05;;;38.00;;
83495;SDS011;73431;40.794;43.836;2023-12-22T03:43:01;80.50;;;40.75;;
83495;SDS011;73431;40.794;43.836;2023-12-22T03:45:29;81.50;;;39.60;;
83495;SDS011;73431;40.794;43.836;2023-12-22T03:47:56;84.28;;;38.70;;
83495;SDS011;73431;40.794;43.836;2023-12-22T03:50:24;99.00;;;46.22;;
83495;SDS011;73431;40.794;43.836;2023-12-22T03:52:52;100.30;;;47.75;;
83495;SDS011;73431;40.794;43.836;2023-12-22T03:55:20;101.57;;;50.38;;
83495;SDS011;73431;40.794;43.836;2023-12-22T03:57:48;94.35;;;46.80;;
83495;SDS011;73431;40.794;43.836;2023-12-22T04:00:16;86.13;;;44.45;;
83495;SDS011;73431;40.794;43.836;2023-12-22T04:02:45;87.07;;;41.55;;
83495;SDS011;73431;40.794;43.836;2023-12-22T04:05:12;99.35;;;46.53;;
83495;SDS011;73431;40.794;43.836;2023-12-22T04:07:40;91.05;;;42.72;;
83495;SDS011;73431;40.794;43.836;2023-12-22T04:10:08;94.43;;;42.47;;
83495;SDS011;73431;40.794;43.836;2023-12-22T04:12:36;110.93;;;43.00;;
83495;SDS011;73431;40.794;43.836;2023-12-22T04:15:04;89.50;;;45.05;;
83495;SDS011;73431;40.794;43.836;2023-12-22T04:17:33;82.90;;;42.42;;
83495;SDS011;73431;40.794;43.836;2023-12-22T04:20:01;91.88;;;43.00;;
83495;SDS011;73431;40.794;43.836;2023-12-22T04:22:29;109.40;;;52.72;;
83495;SDS011;73431;40.794;43.836;2023-12-22T04:24:57;107.28;;;48.63;;
83495;SDS011;73431;40.794;43.836;2023-12-22T04:27:26;102.00;;;48.88;;
83495;SDS011;73431;40.794;43.836;2023-12-22T04:29:53;109.18;;;47.78;;
83495;SDS011;73431;40.794;43.836;2023-12-22T04:32:21;100.15;;;46.97;;
83495;SDS011;73431;40.794;43.836;2023-12-22T04:34:49;97.30;;;46.65;;
83495;SDS011;73431;40.794;43.836;2023-12-22T04:37:16;104.13;;;45.88;;
83495;SDS011;73431;40.794;43.836;2023-12-22T04:39:44;107.88;;;47.03;;
83495;SDS011;73431;40.794;43.836;2023-12-22T04:42:12;85.90;;;42.15;;
83495;SDS011;73431;40.794;43.836;2023-12-22T04:47:07;86.22;;;41.53;;
83495;SDS011;73431;40.794;43.836;2023-12-22T04:49:35;98.32;;;42.80;;
83495;SDS011;73431;40.794;43.836;2023-12-22T04:52:03;100.97;;;39.28;;
83495;SDS011;73431;40.794;43.836;2023-12-22T04:54:31;90.78;;;38.83;;
83495;SDS011;73431;40.794;43.836;2023-12-22T04:56:59;103.60;;;39.17;;
83495;SDS011;73431;40.794;43.836;2023-12-22T04:59:27;89.00;;;36.92;;
83495;SDS011;73431;40.794;43.836;2023-12-22T05:01:55;88.78;;;39.45;;
83495;SDS011;73431;40.794;43.836;2023-12-22T05:04:23;80.90;;;38.80;;
83495;SDS011;73431;40.794;43.836;2023-12-22T05:06:52;77.78;;;37.92;;
83495;SDS011;73431;40.794;43.836;2023-12-22T05:09:20;118.15;;;47.15;;
83495;SDS011;73431;40.794;43.836;2023-12-22T05:11:48;92.78;;;40.28;;
83495;SDS011;73431;40.794;43.836;2023-12-22T05:14:15;80.50;;;38.42;;
83495;SDS011;73431;40.794;43.836;2023-12-22T05:16:43;81.28;;;36.80;;
83495;SDS011;73431;40.794;43.836;2023-12-22T05:19:11;81.68;;;37.78;;
83495;SDS011;73431;40.794;43.836;2023-12-22T05:21:39;93.72;;;35.58;;
83495;SDS011;73431;40.794;43.836;2023-12-22T05:24:06;80.97;;;35.83;;
83495;SDS011;73431;40.794;43.836;2023-12-22T05:26:34;89.60;;;38.63;;
83495;SDS011;73431;40.794;43.836;2023-12-22T05:29:02;83.93;;;38.05;;
83495;SDS011;73431;40.794;43.836;2023-12-22T05:31:30;84.32;;;36.65;;
83495;SDS011;73431;40.794;43.836;2023-12-22T05:33:59;73.25;;;34.08;;
83495;SDS011;73431;40.794;43.836;2023-12-22T05:36:27;75.18;;;34.97;;
83495;SDS011;73431;40.794;43.836;2023-12-22T05:38:54;73.38;;;34.65;;
83495;SDS011;73431;40.794;43.836;2023-12-22T05:41:22;73.78;;;34.20;;
83495;SDS011;73431;40.794;43.836;2023-12-22T05:43:50;77.95;;;35.30;;
83495;SDS011;73431;40.794;43.836;2023-12-22T05:46:18;69.53;;;33.08;;
83495;SDS011;73431;40.794;43.836;2023-12-22T05:48:46;67.10;;;34.90;;
83495;SDS011;73431;40.794;43.836;2023-12-22T05:51:14;71.60;;;31.77;;
83495;SDS011;73431;40.794;43.836;2023-12-22T05:53:42;78.03;;;36.17;;
83495;SDS011;73431;40.794;43.836;2023-12-22T05:56:22;74.35;;;34.50;;
83495;SDS011;73431;40.794;43.836;2023-12-22T05:58:50;70.40;;;34.03;;
83495;SDS011;73431;40.794;43.836;2023-12-22T06:01:18;62.42;;;32.78;;
83495;SDS011;73431;40.794;43.836;2023-12-22T06:03:46;90.20;;;47.22;;
83495;SDS011;73431;40.794;43.836;2023-12-22T06:06:14;66.20;;;29.95;;
83495;SDS011;73431;40.794;43.836;2023-12-22T06:08:43;63.55;;;31.25;;
83495;SDS011;73431;40.794;43.836;2023-12-22T06:11:12;58.35;;;27.27;;
83495;SDS011;73431;40.794;43.836;2023-12-22T06:16:14;61.22;;;28.10;;
83495;SDS011;73431;40.794;43.836;2023-12-22T06:18:43;64.32;;;32.72;;
83495;SDS011;73431;40.794;43.836;2023-12-22T06:21:10;58.20;;;31.45;;
83495;SDS011;73431;40.794;43.836;2023-12-22T06:23:38;56.47;;;29.25;;
83495;SDS011;73431;40.794;43.836;2023-12-22T06:26:09;51.25;;;26.50;;
83495;SDS011;73431;40.794;43.836;2023-12-22T06:28:39;49.00;;;24.27;;
83495;SDS011;73431;40.794;43.836;2023-12-22T06:31:09;58.55;;;31.10;;
83495;SDS011;73431;40.794;43.836;2023-12-22T06:33:48;55.65;;;25.25;;
83495;SDS011;73431;40.794;43.836;2023-12-22T06:36:17;66.55;;;29.13;;
83495;SDS011;73431;40.794;43.836;2023-12-22T06:38:52;56.53;;;27.48;;
83495;SDS011;73431;40.794;43.836;2023-12-22T06:43:55;75.30;;;32.35;;
83495;SDS011;73431;40.794;43.836;2023-12-22T06:46:24;79.47;;;36.78;;
83495;SDS011;73431;40.794;43.836;2023-12-22T06:48:54;80.35;;;35.95;;
83495;SDS011;73431;40.794;43.836;2023-12-22T06:53:51;84.32;;;39.42;;
83495;SDS011;73431;40.794;43.836;2023-12-22T06:58:48;88.25;;;42.83;;
83495;SDS011;73431;40.794;43.836;2023-12-22T07:01:25;85.07;;;43.28;;
83495;SDS011;73431;40.794;43.836;2023-12-22T07:03:53;82.35;;;42.42;;
83495;SDS011;73431;40.794;43.836;2023-12-22T07:06:23;87.55;;;41.78;;
83495;SDS011;73431;40.794;43.836;2023-12-22T07:11:40;87.82;;;42.13;;
83495;SDS011;73431;40.794;43.836;2023-12-22T07:14:13;80.15;;;41.70;;
83495;SDS011;73431;40.794;43.836;2023-12-22T07:16:43;96.97;;;45.13;;
83495;SDS011;73431;40.794;43.836;2023-12-22T07:19:11;87.78;;;45.92;;
83495;SDS011;73431;40.794;43.836;2023-12-22T07:21:42;82.18;;;39.97;;
83495;SDS011;73431;40.794;43.836;2023-12-22T07:24:13;78.65;;;38.92;;
83495;SDS011;73431;40.794;43.836;2023-12-22T07:26:42;72.07;;;37.20;;
83495;SDS011;73431;40.794;43.836;2023-12-22T07:29:11;69.72;;;36.03;;
83495;SDS011;73431;40.794;43.836;2023-12-22T07:31:40;81.45;;;38.70;;
83495;SDS011;73431;40.794;43.836;2023-12-22T07:34:10;65.47;;;35.50;;
83495;SDS011;73431;40.794;43.836;2023-12-22T07:36:39;74.03;;;37.78;;
83495;SDS011;73431;40.794;43.836;2023-12-22T07:39:17;70.25;;;36.95;;
83495;SDS011;73431;40.794;43.836;2023-12-22T07:41:45;76.82;;;38.33;;
83495;SDS011;73431;40.794;43.836;2023-12-22T07:44:13;72.15;;;35.58;;
83495;SDS011;73431;40.794;43.836;2023-12-22T07:46:41;71.85;;;37.08;;
83495;SDS011;73431;40.794;43.836;2023-12-22T07:49:10;79.10;;;38.78;;
83495;SDS011;73431;40.794;43.836;2023-12-22T07:51:42;80.10;;;39.50;;
83495;SDS011;73431;40.794;43.836;2023-12-22T07:54:09;72.90;;;37.20;;
83495;SDS011;73431;40.794;43.836;2023-12-22T07:56:37;78.57;;;40.30;;
83495;SDS011;73431;40.794;43.836;2023-12-22T07:59:04;62.53;;;32.20;;
83495;SDS011;73431;40.794;43.836;2023-12-22T08:01:53;65.38;;;30.85;;
83495;SDS011;73431;40.794;43.836;2023-12-22T08:04:20;54.13;;;26.25;;
83495;SDS011;73431;40.794;43.836;2023-12-22T08:06:48;45.65;;;24.38;;
83495;SDS011;73431;40.794;43.836;2023-12-22T08:09:17;47.95;;;21.95;;
83495;SDS011;73431;40.794;43.836;2023-12-22T08:11:44;44.22;;;23.08;;
83495;SDS011;73431;40.794;43.836;2023-12-22T08:14:14;42.55;;;19.67;;
83495;SDS011;73431;40.794;43.836;2023-12-22T08:16:42;36.95;;;19.85;;
83495;SDS011;73431;40.794;43.836;2023-12-22T08:19:11;35.78;;;17.77;;
83495;SDS011;73431;40.794;43.836;2023-12-22T08:21:39;39.45;;;19.92;;
83495;SDS011;73431;40.794;43.836;2023-12-22T08:24:13;37.08;;;18.70;;
83495;SDS011;73431;40.794;43.836;2023-12-22T08:26:49;42.03;;;19.15;;
83495;SDS011;73431;40.794;43.836;2023-12-22T08:29:17;43.17;;;19.80;;
83495;SDS011;73431;40.794;43.836;2023-12-22T08:31:49;50.53;;;21.13;;
83495;SDS011;73431;40.794;43.836;2023-12-22T08:34:17;36.25;;;19.80;;
83495;SDS011;73431;40.794;43.836;2023-12-22T08:36:45;39.80;;;21.05;;
83495;SDS011;73431;40.794;43.836;2023-12-22T08:39:13;42.55;;;21.70;;
83495;SDS011;73431;40.794;43.836;2023-12-22T08:41:41;33.53;;;19.45;;
83495;SDS011;73431;40.794;43.836;2023-12-22T08:44:10;36.15;;;19.33;;
83495;SDS011;73431;40.794;43.836;2023-12-22T08:46:38;36.22;;;17.75;;
83495;SDS011;73431;40.794;43.836;2023-12-22T08:49:06;30.73;;;17.75;;
83495;SDS011;73431;40.794;43.836;2023-12-22T08:54:02;34.58;;;17.60;;
83495;SDS011;73431;40.794;43.836;2023-12-22T08:56:31;34.97;;;17.10;;
83495;SDS011;73431;40.794;43.836;2023-12-22T09:01:26;37.72;;;19.52;;
83495;SDS011;73431;40.794;43.836;2023-12-22T09:06:22;788.38;;;87.10;;
83495;SDS011;73431;40.794;43.836;2023-12-22T09:08:52;55.65;;;22.63;;
83495;SDS011;73431;40.794;43.836;2023-12-22T09:11:21;39.92;;;20.80;;
83495;SDS011;73431;40.794;43.836;2023-12-22T09:13:49;67.00;;;20.38;;
83495;SDS011;73431;40.794;43.836;2023-12-22T09:16:21;39.22;;;22.63;;
83495;SDS011;73431;40.794;43.836;2023-12-22T09:18:50;38.08;;;19.70;;
83495;SDS011;73431;40.794;43.836;2023-12-22T09:21:19;45.25;;;23.83;;
83495;SDS011;73431;40.794;43.836;2023-12-22T09:23:47;39.35;;;22.13;;
83495;SDS011;73431;40.794;43.836;2023-12-22T09:26:17;43.80;;;22.17;;
83495;SDS011;73431;40.794;43.836;2023-12-22T09:28:44;44.00;;;21.67;;
83495;SDS011;73431;40.794;43.836;2023-12-22T09:31:12;37.00;;;19.75;;
83495;SDS011;73431;40.794;43.836;2023-12-22T09:33:40;42.45;;;21.95;;
83495;SDS011;73431;40.794;43.836;2023-12-22T09:36:10;42.20;;;20.83;;
83495;SDS011;73431;40.794;43.836;2023-12-22T09:38:39;39.28;;;19.33;;
83495;SDS011;73431;40.794;43.836;2023-12-22T09:41:09;43.60;;;20.77;;
83495;SDS011;73431;40.794;43.836;2023-12-22T09:43:38;39.78;;;21.75;;
83495;SDS011;73431;40.794;43.836;2023-12-22T09:46:07;48.75;;;23.00;;
83495;SDS011;73431;40.794;43.836;2023-12-22T09:48:38;38.83;;;23.10;;
83495;SDS011;73431;40.794;43.836;2023-12-22T09:51:07;46.17;;;25.63;;
83495;SDS011;73431;40.794;43.836;2023-12-22T09:53:36;45.53;;;21.35;;
83495;SDS011;73431;40.794;43.836;2023-12-22T09:56:06;43.70;;;22.58;;
83495;SDS011;73431;40.794;43.836;2023-12-22T09:58:35;42.60;;;21.00;;
83495;SDS011;73431;40.794;43.836;2023-12-22T10:01:05;40.42;;;21.52;;
83495;SDS011;73431;40.794;43.836;2023-12-22T10:03:34;37.05;;;21.20;;
83495;SDS011;73431;40.794;43.836;2023-12-22T10:06:05;45.40;;;20.48;;
83495;SDS011;73431;40.794;43.836;2023-12-22T10:08:34;33.80;;;18.42;;
83495;SDS011;73431;40.794;43.836;2023-12-22T10:11:02;37.53;;;18.80;;
83495;SDS011;73431;40.794;43.836;2023-12-22T10:13:32;36.70;;;19.25;;
83495;SDS011;73431;40.794;43.836;2023-12-22T10:16:04;40.25;;;19.85;;
83495;SDS011;73431;40.794;43.836;2023-12-22T10:18:33;43.08;;;20.25;;
83495;SDS011;73431;40.794;43.836;2023-12-22T10:21:01;39.40;;;19.73;;
83495;SDS011;73431;40.794;43.836;2023-12-22T10:23:29;37.78;;;20.23;;
83495;SDS011;73431;40.794;43.836;2023-12-22T10:25:57;37.83;;;19.70;;
83495;SDS011;73431;40.794;43.836;2023-12-22T10:28:28;39.65;;;20.38;;
83495;SDS011;73431;40.794;43.836;2023-12-22T10:30:56;39.63;;;21.33;;
83495;SDS011;73431;40.794;43.836;2023-12-22T10:33:31;40.83;;;20.25;;
83495;SDS011;73431;40.794;43.836;2023-12-22T10:35:59;40.30;;;20.08;;
83495;SDS011;73431;40.794;43.836;2023-12-22T10:38:33;41.05;;;21.95;;
83495;SDS011;73431;40.794;43.836;2023-12-22T10:41:05;45.95;;;22.17;;
83495;SDS011;73431;40.794;43.836;2023-12-22T10:43:40;45.03;;;21.92;;
83495;SDS011;73431;40.794;43.836;2023-12-22T10:46:10;37.30;;;20.08;;
83495;SDS011;73431;40.794;43.836;2023-12-22T10:48:40;44.30;;;22.13;;
83495;SDS011;73431;40.794;43.836;2023-12-22T10:51:09;41.33;;;20.75;;
83495;SDS011;73431;40.794;43.836;2023-12-22T10:53:41;42.88;;;22.38;;
83495;SDS011;73431;40.794;43.836;2023-12-22T10:56:10;44.03;;;22.05;;
83495;SDS011;73431;40.794;43.836;2023-12-22T10:58:39;44.38;;;21.60;;
83495;SDS011;73431;40.794;43.836;2023-12-22T11:01:07;44.22;;;21.70;;
83495;SDS011;73431;40.794;43.836;2023-12-22T11:03:38;39.55;;;19.35;;
83495;SDS011;73431;40.794;43.836;2023-12-22T11:06:07;43.25;;;20.58;;
83495;SDS011;73431;40.794;43.836;2023-12-22T11:08:39;51.10;;;21.80;;
83495;SDS011;73431;40.794;43.836;2023-12-22T11:11:13;39.65;;;18.15;;
83495;SDS011;73431;40.794;43.836;2023-12-22T11:13:48;37.80;;;18.23;;
83495;SDS011;73431;40.794;43.836;2023-12-22T11:16:17;34.28;;;17.77;;
83495;SDS011;73431;40.794;43.836;2023-12-22T11:18:48;31.60;;;17.30;;
83495;SDS011;73431;40.794;43.836;2023-12-22T11:21:20;34.65;;;18.15;;
83495;SDS011;73431;40.794;43.836;2023-12-22T11:23:50;33.58;;;16.58;;
83495;SDS011;73431;40.794;43.836;2023-12-22T11:26:19;35.25;;;16.40;;
83495;SDS011;73431;40.794;43.836;2023-12-22T11:28:50;39.33;;;19.92;;
83495;SDS011;73431;40.794;43.836;2023-12-22T11:31:19;32.00;;;16.38;;
83495;SDS011;73431;40.794;43.836;2023-12-22T11:33:48;42.33;;;18.05;;
83495;SDS011;73431;40.794;43.836;2023-12-22T11:36:33;37.53;;;18.35;;
83495;SDS011;73431;40.794;43.836;2023-12-22T11:39:04;41.10;;;20.33;;
83495;SDS011;73431;40.794;43.836;2023-12-22T11:41:32;38.45;;;19.48;;
83495;SDS011;73431;40.794;43.836;2023-12-22T11:44:03;43.83;;;19.63;;
83495;SDS011;73431;40.794;43.836;2023-12-22T11:46:33;42.63;;;20.10;;
83495;SDS011;73431;40.794;43.836;2023-12-22T11:49:02;39.08;;;18.15;;
83495;SDS011;73431;40.794;43.836;2023-12-22T11:51:33;33.67;;;19.38;;
83495;SDS011;73431;40.794;43.836;2023-12-22T11:54:04;36.42;;;19.40;;
83495;SDS011;73431;40.794;43.836;2023-12-22T12:02:40;38.13;;;18.13;;
83495;SDS011;73431;40.794;43.836;2023-12-22T12:05:08;38.22;;;19.58;;
83495;SDS011;73431;40.794;43.836;2023-12-22T12:07:44;41.20;;;19.92;;
83495;SDS011;73431;40.794;43.836;2023-12-22T12:13:09;39.53;;;18.85;;
83495;SDS011;73431;40.794;43.836;2023-12-22T12:15:38;44.70;;;21.67;;
83495;SDS011;73431;40.794;43.836;2023-12-22T12:18:05;43.65;;;21.60;;
83495;SDS011;73431;40.794;43.836;2023-12-22T12:20:33;43.20;;;18.83;;
83495;SDS011;73431;40.794;43.836;2023-12-22T12:23:02;36.47;;;19.15;;
83495;SDS011;73431;40.794;43.836;2023-12-22T12:28:06;36.90;;;19.02;;
83495;SDS011;73431;40.794;43.836;2023-12-22T12:30:36;42.55;;;20.13;;
83495;SDS011;73431;40.794;43.836;2023-12-22T12:33:09;35.85;;;17.05;;
83495;SDS011;73431;40.794;43.836;2023-12-22T12:35:40;39.97;;;19.70;;
83495;SDS011;73431;40.794;43.836;2023-12-22T12:38:16;31.15;;;16.90;;
83495;SDS011;73431;40.794;43.836;2023-12-22T12:40:48;35.25;;;17.80;;
83495;SDS011;73431;40.794;43.836;2023-12-22T12:43:18;33.80;;;16.52;;
83495;SDS011;73431;40.794;43.836;2023-12-22T12:45:47;34.13;;;16.73;;
83495;SDS011;73431;40.794;43.836;2023-12-22T12:50:45;66.75;;;29.08;;
83495;SDS011;73431;40.794;43.836;2023-12-22T12:55:41;49.33;;;22.58;;
83495;SDS011;73431;40.794;43.836;2023-12-22T12:58:09;41.15;;;19.27;;
83495;SDS011;73431;40.794;43.836;2023-12-22T13:00:38;37.13;;;18.92;;
83495;SDS011;73431;40.794;43.836;2023-12-22T13:03:06;40.63;;;19.60;;
83495;SDS011;73431;40.794;43.836;2023-12-22T13:05:34;40.15;;;19.88;;
83495;SDS011;73431;40.794;43.836;2023-12-22T13:08:09;49.08;;;24.90;;
83495;SDS011;73431;40.794;43.836;2023-12-22T13:10:38;46.95;;;22.52;;
83495;SDS011;73431;40.794;43.836;2023-12-22T13:13:07;44.72;;;21.52;;
83495;SDS011;73431;40.794;43.836;2023-12-22T13:15:35;49.70;;;19.83;;
83495;SDS011;73431;40.794;43.836;2023-12-22T13:18:02;47.85;;;20.48;;
83495;SDS011;73431;40.794;43.836;2023-12-22T13:20:31;41.22;;;20.50;;
83495;SDS011;73431;40.794;43.836;2023-12-22T13:23:00;39.90;;;19.38;;
83495;SDS011;73431;40.794;43.836;2023-12-22T13:25:37;47.00;;;23.25;;
83495;SDS011;73431;40.794;43.836;2023-12-22T13:28:08;44.13;;;22.20;;
83495;SDS011;73431;40.794;43.836;2023-12-22T13:30:37;37.05;;;19.83;;
83495;SDS011;73431;40.794;43.836;2023-12-22T13:33:09;42.45;;;22.08;;
83495;SDS011;73431;40.794;43.836;2023-12-22T13:35:38;39.55;;;19.48;;
83495;SDS011;73431;40.794;43.836;2023-12-22T13:38:09;39.65;;;19.40;;
83495;SDS011;73431;40.794;43.836;2023-12-22T13:40:38;39.85;;;19.33;;
83495;SDS011;73431;40.794;43.836;2023-12-22T13:43:11;35.28;;;18.23;;
83495;SDS011;73431;40.794;43.836;2023-12-22T13:45:39;37.38;;;20.40;;
83495;SDS011;73431;40.794;43.836;2023-12-22T13:48:08;41.10;;;20.85;;
83495;SDS011;73431;40.794;43.836;2023-12-22T13:50:36;79.65;;;32.80;;
83495;SDS011;73431;40.794;43.836;2023-12-22T13:53:10;39.15;;;21.27;;
83495;SDS011;73431;40.794;43.836;2023-12-22T13:55:38;44.25;;;20.65;;
83495;SDS011;73431;40.794;43.836;2023-12-22T13:58:07;41.72;;;20.45;;
83495;SDS011;73431;40.794;43.836;2023-12-22T14:00:36;45.03;;;22.63;;
83495;SDS011;73431;40.794;43.836;2023-12-22T14:03:05;48.45;;;23.65;;
83495;SDS011;73431;40.794;43.836;2023-12-22T14:05:33;51.10;;;24.58;;
83495;SDS011;73431;40.794;43.836;2023-12-22T14:08:03;49.95;;;24.73;;
83495;SDS011;73431;40.794;43.836;2023-12-22T14:10:31;51.50;;;25.90;;
83495;SDS011;73431;40.794;43.836;2023-12-22T14:12:59;50.08;;;24.00;;
83495;SDS011;73431;40.794;43.836;2023-12-22T14:15:27;42.30;;;23.02;;
83495;SDS011;73431;40.794;43.836;2023-12-22T14:18:10;45.92;;;26.33;;
83495;SDS011;73431;40.794;43.836;2023-12-22T14:20:39;55.35;;;28.08;;
83495;SDS011;73431;40.794;43.836;2023-12-22T14:23:07;56.65;;;30.35;;
83495;SDS011;73431;40.794;43.836;2023-12-22T14:25:39;66.03;;;33.13;;
83495;SDS011;73431;40.794;43.836;2023-12-22T14:28:06;57.40;;;29.52;;
83495;SDS011;73431;40.794;43.836;2023-12-22T14:30:34;51.50;;;27.17;;
83495;SDS011;73431;40.794;43.836;2023-12-22T14:33:02;64.72;;;30.33;;
83495;SDS011;73431;40.794;43.836;2023-12-22T14:35:29;76.45;;;34.88;;
83495;SDS011;73431;40.794;43.836;2023-12-22T14:37:57;76.72;;;35.95;;
83495;SDS011;73431;40.794;43.836;2023-12-22T14:40:25;60.15;;;30.63;;
83495;SDS011;73431;40.794;43.836;2023-12-22T14:42:52;60.30;;;30.77;;
83495;SDS011;73431;40.794;43.836;2023-12-22T14:45:20;66.75;;;32.72;;
83495;SDS011;73431;40.794;43.836;2023-12-22T14:47:50;63.60;;;32.38;;
83495;SDS011;73431;40.794;43.836;2023-12-22T14:50:21;63.35;;;31.75;;
83495;SDS011;73431;40.794;43.836;2023-12-22T14:52:49;64.18;;;35.15;;
83495;SDS011;73431;40.794;43.836;2023-12-22T14:55:17;68.68;;;32.92;;
83495;SDS011;73431;40.794;43.836;2023-12-22T14:57:45;63.33;;;30.92;;
83495;SDS011;73431;40.794;43.836;2023-12-22T15:00:14;60.20;;;29.70;;
83495;SDS011;73431;40.794;43.836;2023-12-22T15:02:43;61.92;;;29.48;;
83495;SDS011;73431;40.794;43.836;2023-12-22T15:05:11;68.95;;;30.40;;
83495;SDS011;73431;40.794;43.836;2023-12-22T15:07:39;67.28;;;33.25;;
83495;SDS011;73431;40.794;43.836;2023-12-22T15:10:07;77.72;;;37.47;;
83495;SDS011;73431;40.794;43.836;2023-12-22T15:12:36;72.45;;;36.13;;
83495;SDS011;73431;40.794;43.836;2023-12-22T15:15:05;91.47;;;44.20;;